Home   Weather   USA   Mountain View   Past weeks
Flag for USA

Past Weather in Mountain View, California, USA — Yesterday and Last 2 Weeks

Currently: 43 °F. Low clouds. (Weather station: Moffett Field, USA). See more current weather

Past Weather in Mountain View — Graph

°F

Mountain View Temperature Yesterday

Maximum temperature yesterday: 63 °F (at 2:35 pm)
Minimum temperature yesterday: 46 °F (at 3:55 am)
Average temperature yesterday: 53 °F

High & Low Weather Summary for the Past Weeks

 TemperatureHumidityPressure
High64 °F (Jan 10, 2:55 pm)100% (Jan 4, 9:55 pm)30.46 "Hg (Jan 4, 9:55 pm)
Low37 °F (Jan 9, 5:15 am)42% (Jan 14, 4:35 pm)29.93 "Hg (Jan 7, 3:15 pm)
Average52 °F80%30.19 "Hg
* Reported Jan 3 5:15 am — Jan 18 5:35 am, Mountain View. Weather by CustomWeather, © 2022

Note: Actual official high and low records may vary slightly from our data, if they occured in-between our weather recording intervals... More about our weather records

Mountain View Weather History for the Previous 24 Hours

Scroll right to see more
 ConditionsComfort  
Time TempWeatherWind HumidityBarometerVisibility
5:35 am
Tue, Jan 18
45 °FLow clouds.No wind87%30.11 "Hg10 mi
5:15 am45 °FLow clouds.No wind93%30.11 "Hg10 mi
4:50 am43 °FLow clouds.No wind93%30.10 "Hg10 mi
3:55 am45 °FLow clouds.No wind93%30.10 "Hg10 mi
3:30 am45 °FLow clouds.No wind93%30.10 "Hg10 mi
3:15 am45 °FLow clouds.No wind93%30.10 "Hg10 mi
2:50 am46 °FPassing clouds.No wind87%30.10 "Hg10 mi
2:35 am46 °FPassing clouds.No wind87%30.10 "Hg10 mi
2:15 am46 °FClear.No wind87%30.10 "Hg10 mi
1:55 am45 °FClear.No wind93%30.10 "Hg10 mi
1:35 am46 °FClear.No wind87%30.10 "Hg10 mi
1:10 am46 °FPassing clouds.No wind93%30.09 "Hg10 mi
12:55 am46 °FPassing clouds.No wind87%30.08 "Hg10 mi
12:35 am48 °FPassing clouds.No wind87%30.08 "Hg10 mi
12:15 am48 °FClear.No wind87%30.08 "Hg10 mi
11:35 pm
Mon, Jan 17
48 °FClear.No wind87%30.08 "Hg10 mi
10:55 pm50 °FPassing clouds.No wind82%30.07 "Hg10 mi
10:35 pm50 °FPassing clouds.No wind82%30.08 "Hg10 mi
9:55 pm52 °FOvercast.No wind77%30.07 "Hg10 mi
9:30 pm54 °FOvercast.No wind72%30.07 "Hg10 mi
9:10 pm52 °FOvercast.No wind77%30.07 "Hg10 mi
8:55 pm52 °FOvercast.No wind77%30.07 "Hg10 mi
8:35 pm52 °FOvercast.No wind77%30.06 "Hg10 mi
8:15 pm52 °FPassing clouds.No wind77%30.06 "Hg10 mi
7:50 pm52 °FClear.No wind77%30.06 "Hg10 mi
7:35 pm52 °FClear.No wind77%30.05 "Hg10 mi
7:15 pm54 °FClear.No wind72%30.05 "Hg10 mi
6:55 pm54 °FClear.No wind67%30.05 "Hg10 mi
6:35 pm55 °FClear.No wind63%30.05 "Hg10 mi
6:15 pm55 °FClear.No wind63%30.04 "Hg10 mi
5:55 pm55 °FClear.6 mph63%30.04 "Hg10 mi
5:35 pm55 °FClear.6 mph67%30.03 "Hg9 mi
4:55 pm57 °FSunny.7 mph63%30.02 "Hg9 mi
4:35 pm57 °FSunny.6 mph63%30.02 "Hg9 mi
4:15 pm59 °FSunny.5 mph68%30.02 "Hg9 mi
3:55 pm59 °FScattered clouds.No wind63%30.02 "Hg9 mi
3:30 pm61 °FOvercast.No wind59%30.02 "Hg8 mi
3:15 pm61 °FOvercast.No wind59%30.02 "Hg8 mi
2:55 pm61 °FOvercast.No wind59%30.02 "Hg8 mi
2:35 pm63 °FPartly sunny.No wind56%30.02 "Hg8 mi
2:15 pm61 °FSunny.No wind59%30.03 "Hg6 mi
1:55 pm61 °FSunny.3 mph59%30.03 "Hg7 mi
1:35 pm59 °FPartly sunny.No wind63%30.03 "Hg6 mi
1:15 pm59 °FOvercast.No wind63%30.03 "Hg6 mi
12:50 pm57 °FMostly cloudy.No wind67%30.06 "Hg7 mi
12:35 pm57 °FPartly sunny.5 mph67%30.06 "Hg7 mi
12:15 pm57 °FPartly sunny.6 mph72%30.07 "Hg8 mi
11:55 am55 °FScattered clouds.3 mph72%30.07 "Hg8 mi
11:35 am57 °FSunny.No wind63%30.08 "Hg9 mi
11:15 am57 °FSunny.No wind63%30.09 "Hg8 mi
10:55 am55 °FSunny.No wind72%30.09 "Hg6 mi
10:35 am55 °FSunny.3 mph77%30.09 "Hg6 mi
10:15 am55 °FScattered clouds.3 mph77%30.09 "Hg7 mi
9:55 am54 °FBroken clouds.6 mph82%30.09 "Hg7 mi
9:35 am54 °FBroken clouds.3 mph77%30.09 "Hg7 mi
9:15 am54 °FMostly cloudy.3 mph82%30.09 "Hg7 mi
8:35 am52 °FOvercast.No wind77%30.08 "Hg9 mi
8:15 am50 °FOvercast.No wind82%30.08 "Hg8 mi
7:55 am48 °FOvercast.No wind87%30.07 "Hg9 mi
7:35 am48 °FPartly sunny.No wind87%30.07 "Hg8 mi
7:15 am48 °FPassing clouds.No wind87%30.06 "Hg10 mi
6:50 am48 °FOvercast.3 mph87%30.06 "Hg10 mi
6:35 am48 °FMostly cloudy.No wind87%30.05 "Hg10 mi
Weather by CustomWeather, © 2022

See weather overview